Time;durP1;ratioP1;P1;durP2;ratioP2;P2;SDS_P1;SDS_P2;PMS_P1;PMS_P2;Temp;Humidity;BMP_temperature;BMP_pressure;BME280_temperature;BME280_humidity;BME280_pressure;Samples;Min_cycle;Max_cycle;Signal;HPM_P1;HPM_P2
2022/12/17 13:08:08;;;;;;;11.80;5.20;;;;;;;12.22;nan;-24158.34;5009733;28;20575;-84
2022/12/17 13:10:35;;;;;;;11.13;6.85;;;;;;;12.27;nan;-24159.63;5029524;28;20263;-84
2022/12/17 13:13:16;;;;;;;13.48;7.35;;;;;;;11.90;nan;-24149.34;5030937;28;20677;-83
2022/12/17 13:15:50;;;;;;;16.40;5.57;;;;;;;12.27;nan;-24159.63;5030761;28;20183;-82
2022/12/17 13:18:39;;;;;;;11.57;6.93;;;;;;;12.35;nan;-24162.00;5032390;28;20182;-85
2022/12/17 13:21:23;;;;;;;12.00;5.85;;;;;;;12.18;nan;-24157.22;5030373;28;20598;-82
2022/12/17 13:23:49;;;;;;;13.10;6.95;;;;;;;11.94;nan;-24150.59;5032119;28;20190;-83
2022/12/17 13:26:42;;;;;;;15.00;6.95;;;;;;;12.00;nan;-24152.16;5030241;28;20171;-85
2022/12/17 13:29:28;;;;;;;14.07;6.82;;;;;;;12.25;nan;-24159.19;5030747;28;20179;-85
2022/12/17 13:31:59;;;;;;;9.60;5.72;;;;;;;12.42;nan;-24163.84;5030220;28;20183;-82
2022/12/17 13:34:59;;;;;;;11.85;5.57;;;;;;;12.67;nan;-24170.88;5030687;28;20290;-82
2022/12/17 13:37:54;;;;;;;11.57;5.88;;;;;;;12.68;nan;-24171.00;5030352;28;20179;-84
2022/12/17 13:40:43;;;;;;;16.85;7.85;;;;;;;12.42;nan;-24163.84;5030031;28;20192;-85
2022/12/17 13:43:21;;;;;;;12.02;6.20;;;;;;;12.12;nan;-24155.38;5029846;28;20229;-85
2022/12/17 13:45:47;;;;;;;9.98;5.93;;;;;;;12.11;nan;-24155.25;5031401;28;20194;-82
2022/12/17 13:48:25;;;;;;;13.07;5.72;;;;;;;11.87;nan;-24148.50;5031765;28;20273;-84
2022/12/17 13:50:59;;;;;;;9.73;5.93;;;;;;;11.90;nan;-24149.34;5031550;28;20195;-82
2022/12/17 13:53:26;;;;;;;10.43;6.20;;;;;;;11.88;nan;-24148.78;5029936;28;20324;-82
2022/12/17 13:55:54;;;;;;;9.70;5.35;;;;;;;11.71;nan;-24143.97;5029755;28;20175;-85
2022/12/17 13:58:29;;;;;;;14.45;6.30;;;;;;;12.19;nan;-24157.50;5029899;28;20186;-83
2022/12/17 14:01:13;;;;;;;9.95;5.85;;;;;;;12.13;nan;-24155.66;5029795;28;20174;-83
2022/12/17 14:03:47;;;;;;;12.43;6.97;;;;;;;12.15;nan;-24156.25;5031803;28;20219;-85
2022/12/17 14:06:13;;;;;;;11.48;5.70;;;;;;;12.10;nan;-24154.97;5030306;28;20295;-81
2022/12/17 14:08:39;;;;;;;12.73;6.78;;;;;;;12.04;nan;-24153.13;5030528;28;20725;-82
2022/12/17 14:13:49;;;;;;;16.73;8.18;;;;;;;11.95;nan;-24150.75;5031188;28;20256;-82
2022/12/17 14:16:16;;;;;;;14.02;7.18;;;;;;;11.95;nan;-24150.75;5031624;28;20258;-82
2022/12/17 14:18:50;;;;;;;14.88;6.63;;;;;;;11.93;nan;-24150.31;5030066;28;20168;-81
2022/12/17 14:21:16;;;;;;;12.07;6.20;;;;;;;11.63;nan;-24141.72;5031197;28;20635;-82
2022/12/17 14:23:43;;;;;;;10.75;5.45;;;;;;;11.82;nan;-24147.09;5029608;28;20194;-82
2022/12/17 14:26:10;;;;;;;13.02;6.40;;;;;;;11.68;nan;-24143.28;5030437;28;20167;-81
2022/12/17 14:28:45;;;;;;;13.55;6.82;;;;;;;11.44;nan;-24136.50;5029718;28;20299;-80
2022/12/17 14:31:19;;;;;;;15.68;7.05;;;;;;;11.59;nan;-24140.59;5031303;28;20167;-84
2022/12/17 14:33:45;;;;;;;12.90;6.82;;;;;;;11.57;nan;-24140.03;5029596;28;20238;-82
2022/12/17 14:36:24;;;;;;;16.23;7.22;;;;;;;11.62;nan;-24141.44;5029628;28;20674;-81
2022/12/17 14:39:12;;;;;;;14.77;7.32;;;;;;;11.48;nan;-24137.78;5031320;28;20174;-82
2022/12/17 14:44:27;;;;;;;14.23;8.05;;;;;;;11.08;nan;-24126.66;5031056;28;20190;-83
2022/12/17 14:47:29;;;;;;;18.17;7.53;;;;;;;11.26;nan;-24131.59;5030692;28;20603;-82
2022/12/17 14:49:56;;;;;;;11.45;7.63;;;;;;;11.10;nan;-24127.06;5029844;28;20179;-83
2022/12/17 14:52:42;;;;;;;19.05;9.23;;;;;;;11.17;nan;-24129.03;5029266;28;20223;-83
2022/12/17 14:56:03;;;;;;;14.98;7.85;;;;;;;10.98;nan;-24123.69;5026433;28;20211;-80
2022/12/17 14:58:29;;;;;;;16.73;7.50;;;;;;;10.97;nan;-24123.41;4991973;28;20759;-81
2022/12/17 15:01:07;;;;;;;22.42;8.98;;;;;;;10.56;nan;-24111.97;5031837;28;20270;-80
2022/12/17 15:03:39;;;;;;;15.13;8.30;;;;;;;10.83;nan;-24119.47;5030726;28;20226;-84
2022/12/17 15:06:07;;;;;;;13.68;7.85;;;;;;;11.03;nan;-24125.09;5033660;28;20179;-84
2022/12/17 15:08:40;;;;;;;24.83;8.90;;;;;;;10.91;nan;-24121.72;5034587;28;20171;-84
2022/12/17 15:11:05;;;;;;;19.88;7.65;;;;;;;11.01;nan;-24124.53;5032523;28;20639;-83
2022/12/17 15:13:31;;;;;;;19.95;8.98;;;;;;;11.03;nan;-24125.09;5034468;28;20175;-83
2022/12/17 15:15:57;;;;;;;20.17;9.05;;;;;;;10.69;nan;-24115.50;5034293;28;20168;-82
2022/12/17 15:18:22;;;;;;;16.48;8.30;;;;;;;10.83;nan;-24119.47;5039510;28;20556;-82
2022/12/17 15:20:48;;;;;;;21.05;9.05;;;;;;;10.59;nan;-24112.97;5033992;28;20185;-84
2022/12/17 15:23:18;;;;;;;16.85;8.73;;;;;;;10.77;nan;-24117.78;5038382;28;20186;-83
2022/12/17 15:25:46;;;;;;;16.02;9.55;;;;;;;11.18;nan;-24129.34;5027159;28;20325;-86
2022/12/17 15:28:12;;;;;;;21.08;9.50;;;;;;;11.02;nan;-24124.97;5019111;28;20218;-82
2022/12/17 15:30:38;;;;;;;14.77;8.13;;;;;;;11.02;nan;-24124.97;5022589;28;20182;-83
2022/12/17 15:33:05;;;;;;;15.15;9.38;;;;;;;11.00;nan;-24124.25;5033475;28;20553;-81
2022/12/17 15:35:31;;;;;;;19.50;9.13;;;;;;;11.11;nan;-24127.34;5032561;28;20404;-82
2022/12/17 15:37:57;;;;;;;21.27;10.13;;;;;;;10.86;nan;-24120.31;5032485;28;20183;-80
2022/12/17 15:40:22;;;;;;;22.70;8.65;;;;;;;10.80;nan;-24118.75;5033932;28;20666;-80
2022/12/17 15:45:31;;;;;;;16.13;8.52;;;;;;;10.33;nan;-24105.63;5033767;28;20186;-80
2022/12/17 15:47:57;;;;;;;17.50;8.55;;;;;;;10.54;nan;-24111.41;5034048;28;20639;-81
2022/12/17 15:50:22;;;;;;;19.23;9.68;;;;;;;10.13;nan;-24100.13;5033684;28;20167;-81
2022/12/17 15:52:48;;;;;;;17.13;9.35;;;;;;;10.51;nan;-24110.56;5032918;28;20182;-81
2022/12/17 15:55:14;;;;;;;22.60;8.82;;;;;;;10.39;nan;-24107.31;5033816;28;20785;-83
2022/12/17 15:57:39;;;;;;;19.02;8.75;;;;;;;10.38;nan;-24106.91;5034103;28;20197;-82
2022/12/17 16:00:06;;;;;;;15.75;8.65;;;;;;;10.65;nan;-24114.53;5032379;28;20635;-81
2022/12/17 16:02:31;;;;;;;19.95;8.20;;;;;;;10.62;nan;-24113.69;5031855;28;20214;-81
2022/12/17 16:04:57;;;;;;;17.17;8.35;;;;;;;10.43;nan;-24108.31;5032712;28;20317;-80
2022/12/17 16:07:22;;;;;;;19.02;8.48;;;;;;;10.58;nan;-24112.69;5031628;28;20192;-83
2022/12/17 16:09:47;;;;;;;18.55;9.07;;;;;;;10.50;nan;-24110.44;5032085;28;20183;-82
2022/12/17 16:12:13;;;;;;;17.05;8.88;;;;;;;10.81;nan;-24118.91;5031616;28;20687;-83
2022/12/17 16:14:38;;;;;;;16.90;8.70;;;;;;;10.50;nan;-24110.28;5031361;28;20207;-88
2022/12/17 16:17:04;;;;;;;19.50;10.60;;;;;;;10.49;nan;-24110.16;5031601;28;20724;-84
2022/12/17 16:19:29;;;;;;;21.60;9.30;;;;;;;10.47;nan;-24109.59;5032756;28;20655;-84
2022/12/17 16:21:54;;;;;;;19.27;8.98;;;;;;;10.30;nan;-24104.66;5033076;28;20211;-84
2022/12/17 16:24:20;;;;;;;18.67;8.88;;;;;;;10.39;nan;-24107.31;5031569;28;20175;-85
2022/12/17 16:26:45;;;;;;;20.73;10.13;;;;;;;10.32;nan;-24105.34;5031956;28;20183;-82
2022/12/17 16:29:11;;;;;;;20.45;8.88;;;;;;;10.39;nan;-24107.19;5033416;28;20167;-83
2022/12/17 16:31:36;;;;;;;18.65;9.05;;;;;;;10.36;nan;-24106.47;5031631;28;20183;-82
2022/12/17 16:34:06;;;;;;;15.75;8.32;;;;;;;10.12;nan;-24099.84;5032572;28;20581;-84
2022/12/17 16:36:31;;;;;;;19.40;8.30;;;;;;;10.42;nan;-24108.16;5030990;28;20187;-83
2022/12/17 16:38:56;;;;;;;14.45;8.93;;;;;;;10.45;nan;-24108.88;5031263;28;20190;-83
2022/12/17 16:41:22;;;;;;;22.17;10.00;;;;;;;10.49;nan;-24110.16;5031080;28;20179;-81
2022/12/17 16:43:48;;;;;;;17.73;9.23;;;;;;;10.21;nan;-24102.25;5031441;28;20609;-84
2022/12/17 16:46:30;;;;;;;28.27;15.93;;;;;;;10.23;nan;-24102.81;5031177;28;20190;-83
2022/12/17 16:48:57;;;;;;;34.60;17.35;;;;;;;10.16;nan;-24100.84;5030921;28;20202;-82
2022/12/17 16:51:25;;;;;;;34.85;17.90;;;;;;;10.02;nan;-24096.88;5032731;28;20198;-83
2022/12/17 16:53:50;;;;;;;40.80;19.58;;;;;;;10.36;nan;-24106.34;5030302;28;20205;-82
2022/12/17 16:56:18;;;;;;;43.22;24.25;;;;;;;10.21;nan;-24102.25;5031004;28;20176;-83
2022/12/17 16:58:44;;;;;;;27.95;15.05;;;;;;;10.00;nan;-24096.44;5031040;28;20182;-86
2022/12/17 17:01:10;;;;;;;52.45;26.98;;;;;;;8.04;nan;-24041.56;5030826;28;20179;-85
2022/12/17 17:03:40;;;;;;;37.60;17.95;;;;;;;9.89;nan;-24093.34;5030281;28;20655;-84
2022/12/17 17:06:06;;;;;;;29.63;14.25;;;;;;;10.02;nan;-24096.88;5030482;28;20660;-86
2022/12/17 17:08:34;;;;;;;34.17;14.18;;;;;;;9.71;nan;-24088.41;5032340;28;20561;-85
2022/12/17 17:11:18;;;;;;;26.50;10.80;;;;;;;9.68;nan;-24087.41;5030887;28;20199;-83
2022/12/17 17:13:44;;;;;;;16.50;9.90;;;;;;;9.73;nan;-24088.97;5031091;28;20175;-88
2022/12/17 17:16:10;;;;;;;23.55;10.52;;;;;;;9.83;nan;-24091.66;5031178;28;20527;-86
2022/12/17 17:18:36;;;;;;;23.98;11.65;;;;;;;9.57;nan;-24084.44;5032827;28;20210;-84
2022/12/17 17:21:18;;;;;;;27.55;11.90;;;;;;;9.61;nan;-24085.56;5035429;28;20182;-85
2022/12/17 17:23:47;;;;;;;26.10;11.98;;;;;;;9.47;nan;-24081.63;5034660;28;20246;-87
2022/12/17 17:26:14;;;;;;;38.75;17.95;;;;;;;9.63;nan;-24086.13;5030271;28;20552;-85
2022/12/17 17:28:39;;;;;;;38.00;20.90;;;;;;;9.58;nan;-24084.59;5030698;28;20171;-89
2022/12/17 17:31:09;;;;;;;43.35;19.90;;;;;;;9.69;nan;-24087.84;5030614;28;20232;-86
2022/12/17 17:33:37;;;;;;;41.75;19.15;;;;;;;9.58;nan;-24084.72;5032516;28;20221;-85
2022/12/17 17:36:09;;;;;;;44.10;20.77;;;;;;;9.55;nan;-24083.88;5030474;28;20188;-87
2022/12/17 17:38:39;;;;;;;37.67;18.73;;;;;;;9.66;nan;-24086.97;5031369;28;20183;-86
2022/12/17 17:41:06;;;;;;;38.55;17.58;;;;;;;9.61;nan;-24085.56;5031329;28;20293;-86
2022/12/17 17:43:32;;;;;;;30.15;15.27;;;;;;;9.66;nan;-24086.97;5031117;28;20558;-87
2022/12/17 17:46:15;;;;;;;23.77;12.75;;;;;;;9.75;nan;-24089.38;5032369;28;20179;-84
2022/12/17 17:48:42;;;;;;;23.50;10.63;;;;;;;9.69;nan;-24087.84;5030860;28;20716;-88
2022/12/17 17:51:16;;;;;;;21.95;11.38;;;;;;;9.79;nan;-24090.38;5031138;28;20678;-86
2022/12/17 17:53:42;;;;;;;21.17;10.63;;;;;;;9.83;nan;-24091.50;5032082;28;20338;-86
2022/12/17 17:56:14;;;;;;;18.08;9.13;;;;;;;9.51;nan;-24082.75;5030489;28;20192;-84
2022/12/17 17:58:46;;;;;;;25.20;12.05;;;;;;;9.74;nan;-24089.25;5029101;28;20179;-86
2022/12/17 18:01:21;;;;;;;26.38;12.40;;;;;;;9.83;nan;-24091.50;5030886;28;20179;-87
2022/12/17 18:03:46;;;;;;;18.13;9.90;;;;;;;9.44;nan;-24080.78;5030488;28;20288;-86
2022/12/17 18:06:13;;;;;;;22.20;10.90;;;;;;;9.75;nan;-24089.53;5030647;28;20190;-86
2022/12/17 18:08:40;;;;;;;15.85;9.32;;;;;;;9.77;nan;-24090.09;5031669;28;20318;-86
2022/12/17 18:11:10;;;;;;;26.15;10.40;;;;;;;9.69;nan;-24087.69;5031142;28;20179;-87
2022/12/17 18:13:53;;;;;;;18.25;9.98;;;;;;;9.39;nan;-24079.34;5030860;28;20254;-83
2022/12/17 18:16:31;;;;;;;23.38;9.88;;;;;;;9.76;nan;-24089.81;5032379;28;20183;-84
2022/12/17 18:19:20;;;;;;;16.45;9.27;;;;;;;9.69;nan;-24087.84;5031776;28;20183;-86
2022/12/17 18:21:46;;;;;;;17.73;9.38;;;;;;;9.61;nan;-24085.56;5030853;28;20183;-84
2022/12/17 18:24:17;;;;;;;21.63;10.30;;;;;;;9.40;nan;-24079.63;5031483;28;20175;-81
2022/12/17 18:26:45;;;;;;;22.52;9.77;;;;;;;9.49;nan;-24082.19;5032682;28;20159;-86
2022/12/17 18:29:15;;;;;;;19.98;9.65;;;;;;;9.57;nan;-24084.44;5032603;28;20185;-86
2022/12/17 18:31:41;;;;;;;21.85;10.00;;;;;;;9.40;nan;-24079.50;5031301;28;20180;-88
2022/12/17 18:34:07;;;;;;;23.08;10.07;;;;;;;9.00;nan;-24068.34;5031629;28;20647;-88
2022/12/17 18:36:39;;;;;;;24.00;10.52;;;;;;;9.24;nan;-24075.25;5034360;28;20179;-86
2022/12/17 18:39:11;;;;;;;20.38;9.85;;;;;;;9.19;nan;-24073.72;5034750;28;20291;-87
2022/12/17 18:44:22;;;;;;;21.95;10.13;;;;;;;9.07;nan;-24070.31;5036443;28;20225;-86
2022/12/17 18:46:48;;;;;;;18.77;10.52;;;;;;;8.86;nan;-24064.50;5035628;28;20714;-86
2022/12/17 18:49:15;;;;;;;18.00;10.32;;;;;;;8.85;nan;-24064.38;5036467;28;20195;-84
2022/12/17 18:51:43;;;;;;;23.70;11.00;;;;;;;8.94;nan;-24066.63;5034747;28;20187;-86
2022/12/17 18:54:14;;;;;;;23.17;9.77;;;;;;;9.04;nan;-24069.47;5035360;28;20199;-87
2022/12/17 18:56:39;;;;;;;23.83;10.25;;;;;;;9.02;nan;-24068.91;5035892;28;20163;-85
2022/12/17 18:59:05;;;;;;;28.20;10.90;;;;;;;8.89;nan;-24065.34;5034933;28;20186;-87
2022/12/17 19:01:33;;;;;;;26.77;12.40;;;;;;;9.11;nan;-24071.44;5036364;28;20167;-86
2022/12/17 19:04:07;;;;;;;29.65;13.10;;;;;;;8.92;nan;-24066.06;5035182;28;20675;-87
2022/12/17 19:06:34;;;;;;;26.83;12.50;;;;;;;8.66;nan;-24058.84;5034702;28;20171;-85
2022/12/17 19:09:00;;;;;;;26.98;12.98;;;;;;;8.03;nan;-24041.16;5035714;28;20175;-87
2022/12/17 19:11:26;;;;;;;27.33;12.68;;;;;;;9.02;nan;-24068.91;5045858;28;20203;-86
2022/12/17 19:13:52;;;;;;;23.75;12.48;;;;;;;9.11;nan;-24071.44;5060022;28;20183;-85
2022/12/17 19:16:23;;;;;;;36.00;13.30;;;;;;;8.92;nan;-24066.22;5043952;28;20568;-86
2022/12/17 19:18:58;;;;;;;26.35;11.82;;;;;;;8.97;nan;-24067.47;5034274;28;20226;-87
2022/12/17 19:21:24;;;;;;;30.50;14.35;;;;;;;8.95;nan;-24067.06;5034679;28;20183;-87
2022/12/17 19:23:55;;;;;;;27.05;12.88;;;;;;;8.96;nan;-24067.19;5035917;28;20202;-89
2022/12/17 19:26:21;;;;;;;24.40;11.50;;;;;;;8.81;nan;-24063.09;5035901;28;20168;-89
2022/12/17 19:28:49;;;;;;;25.85;12.30;;;;;;;8.91;nan;-24065.78;5034777;28;20190;-88
2022/12/17 19:31:16;;;;;;;29.15;13.25;;;;;;;9.08;nan;-24070.59;5034907;28;20175;-86
2022/12/17 19:33:42;;;;;;;30.05;12.48;;;;;;;8.68;nan;-24059.41;5033727;28;20179;-86
2022/12/17 19:36:19;;;;;;;33.75;13.77;;;;;;;8.86;nan;-24064.66;5034400;28;20237;-87
2022/12/17 19:38:45;;;;;;;24.35;13.40;;;;;;;8.82;nan;-24063.38;5034512;28;20547;-87
2022/12/17 19:41:14;;;;;;;26.83;14.65;;;;;;;8.92;nan;-24066.22;5033751;28;20627;-84
2022/12/17 19:43:40;;;;;;;25.80;11.43;;;;;;;9.03;nan;-24069.31;5033788;28;20179;-86
2022/12/17 19:46:11;;;;;;;25.40;13.30;;;;;;;8.69;nan;-24059.84;5033660;28;20230;-83
2022/12/17 19:48:38;;;;;;;32.67;12.68;;;;;;;8.76;nan;-24061.69;5033462;28;20235;-85
2022/12/17 19:51:06;;;;;;;22.48;11.73;;;;;;;8.81;nan;-24063.25;5034379;28;20658;-86
2022/12/17 19:53:33;;;;;;;25.70;12.52;;;;;;;8.84;nan;-24063.94;5035898;28;20266;-87
2022/12/17 19:56:18;;;;;;;27.98;11.95;;;;;;;8.90;nan;-24065.50;5034650;28;20184;-85
2022/12/17 19:58:46;;;;;;;24.08;12.25;;;;;;;8.63;nan;-24058.16;5036029;28;20281;-83
2022/12/17 20:01:15;;;;;;;22.92;11.32;;;;;;;8.79;nan;-24062.53;5034695;28;20548;-83
2022/12/17 20:03:42;;;;;;;20.88;10.13;;;;;;;8.74;nan;-24061.25;5035695;28;20291;-81
2022/12/17 20:06:09;;;;;;;32.08;10.32;;;;;;;8.62;nan;-24057.72;5034700;28;20659;-84
2022/12/17 20:08:35;;;;;;;23.80;11.88;;;;;;;8.85;nan;-24064.38;5037479;28;20228;-83
2022/12/17 20:11:02;;;;;;;27.83;11.50;;;;;;;8.98;nan;-24067.75;5034750;28;20187;-87
2022/12/17 20:13:28;;;;;;;24.02;11.23;;;;;;;8.64;nan;-24058.28;5035949;28;20190;-85
2022/12/17 20:16:01;;;;;;;27.90;11.83;;;;;;;8.57;nan;-24056.44;5037737;28;20217;-85
2022/12/17 20:18:27;;;;;;;24.93;11.80;;;;;;;8.57;nan;-24056.44;5035026;28;20677;-85
2022/12/17 20:21:00;;;;;;;15.23;8.50;;;;;;;9.01;nan;-24068.63;5036359;28;20188;-84
2022/12/17 20:23:26;;;;;;;22.37;10.30;;;;;;;8.83;nan;-24063.66;5035518;28;20194;-85
2022/12/17 20:26:04;;;;;;;25.70;12.60;;;;;;;8.35;nan;-24050.22;5035464;28;20245;-86
2022/12/17 20:28:30;;;;;;;17.10;9.83;;;;;;;9.04;nan;-24069.59;5036184;28;20183;-87
2022/12/17 20:30:56;;;;;;;20.10;9.87;;;;;;;9.34;nan;-24077.94;5035140;28;20680;-85
2022/12/17 20:33:21;;;;;;;15.57;9.43;;;;;;;9.44;nan;-24080.78;5036031;28;20662;-85
2022/12/17 20:35:47;;;;;;;18.10;8.55;;;;;;;9.68;nan;-24087.56;5035120;28;20216;-84
2022/12/17 20:38:12;;;;;;;19.65;8.65;;;;;;;9.28;nan;-24076.25;5034318;28;20562;-86
2022/12/17 20:40:39;;;;;;;23.73;11.50;;;;;;;9.16;nan;-24073.00;5032020;28;20179;-87
2022/12/17 20:43:04;;;;;;;19.80;9.95;;;;;;;9.27;nan;-24075.97;5031960;28;20273;-86
2022/12/17 20:45:30;;;;;;;18.43;9.20;;;;;;;9.31;nan;-24077.09;5032818;28;20217;-86
2022/12/17 20:47:55;;;;;;;19.50;9.13;;;;;;;9.22;nan;-24074.56;5035871;28;20190;-87
2022/12/17 20:50:21;;;;;;;18.37;8.27;;;;;;;9.08;nan;-24070.72;5031844;28;20180;-87
2022/12/17 20:52:46;;;;;;;15.37;8.93;;;;;;;9.14;nan;-24072.44;5032253;28;20193;-87
2022/12/17 20:55:11;;;;;;;21.17;9.32;;;;;;;9.07;nan;-24070.31;5031628;28;20221;-86
2022/12/17 20:57:37;;;;;;;18.95;8.65;;;;;;;9.22;nan;-24074.56;5032059;28;20189;-87
2022/12/17 21:00:03;;;;;;;15.48;8.38;;;;;;;9.13;nan;-24072.00;5030165;28;20266;-87
2022/12/17 21:02:28;;;;;;;21.67;9.40;;;;;;;8.99;nan;-24068.03;5032277;28;20261;-86
2022/12/17 21:04:53;;;;;;;15.95;8.30;;;;;;;8.72;nan;-24060.69;5031693;28;20234;-86
2022/12/17 21:07:19;;;;;;;16.10;7.50;;;;;;;8.88;nan;-24065.22;5032789;28;20561;-85
2022/12/17 21:09:44;;;;;;;18.88;7.97;;;;;;;8.63;nan;-24058.00;5030982;28;20183;-85
2022/12/17 21:12:12;;;;;;;20.50;8.33;;;;;;;8.66;nan;-24059.00;5031146;28;20233;-86
2022/12/17 21:14:37;;;;;;;20.33;9.53;;;;;;;8.52;nan;-24055.03;5032178;28;20670;-86
2022/12/17 21:17:03;;;;;;;20.10;10.67;;;;;;;8.48;nan;-24053.91;5032321;28;20179;-86
2022/12/17 21:19:28;;;;;;;24.93;11.03;;;;;;;8.63;nan;-24058.00;5030823;28;20592;-84
2022/12/17 21:21:53;;;;;;;19.33;9.50;;;;;;;8.77;nan;-24062.09;5030274;28;20192;-84
2022/12/17 21:24:19;;;;;;;12.57;7.80;;;;;;;8.63;nan;-24058.00;5031869;28;20266;-84
2022/12/17 21:26:45;;;;;;;18.73;9.37;;;;;;;8.73;nan;-24060.97;5031842;28;20175;-84
2022/12/17 21:29:13;;;;;;;19.53;8.50;;;;;;;8.56;nan;-24056.16;5030617;28;20178;-84
2022/12/17 21:31:45;;;;;;;19.97;9.27;;;;;;;8.19;nan;-24045.81;5029257;28;20237;-82
2022/12/17 21:34:14;;;;;;;17.70;9.07;;;;;;;8.73;nan;-24060.97;5031029;28;20234;-85
2022/12/17 21:36:40;;;;;;;18.87;9.80;;;;;;;8.62;nan;-24057.72;5031047;28;20175;-84
2022/12/17 21:39:08;;;;;;;15.27;8.90;;;;;;;8.62;nan;-24057.88;5030760;28;20273;-86
2022/12/17 21:41:36;;;;;;;12.87;7.27;;;;;;;8.63;nan;-24058.16;5031177;28;20186;-83
2022/12/17 21:44:05;;;;;;;13.87;7.60;;;;;;;8.14;nan;-24044.41;5031461;28;20202;-87
2022/12/17 21:46:31;;;;;;;17.77;8.60;;;;;;;8.49;nan;-24054.03;5031339;28;20206;-88
2022/12/17 21:48:58;;;;;;;17.35;8.05;;;;;;;8.51;nan;-24054.75;5030768;28;20183;-85
2022/12/17 21:51:24;;;;;;;15.07;7.80;;;;;;;8.52;nan;-24055.03;5030710;28;20182;-85
2022/12/17 21:53:55;;;;;;;19.73;8.20;;;;;;;8.55;nan;-24055.88;5030514;28;20561;-84
2022/12/17 21:56:22;;;;;;;17.98;9.70;;;;;;;8.42;nan;-24052.19;5029723;28;20213;-85
2022/12/17 21:58:47;;;;;;;15.10;8.73;;;;;;;8.24;nan;-24047.25;5030747;28;20278;-85
2022/12/17 22:01:17;;;;;;;19.58;8.13;;;;;;;7.54;nan;-24027.56;5030421;28;20674;-84
2022/12/17 22:03:42;;;;;;;18.48;8.35;;;;;;;8.60;nan;-24057.28;5031627;28;20223;-84
2022/12/17 22:06:10;;;;;;;16.35;7.55;;;;;;;8.28;nan;-24048.38;5030631;28;20175;-85
2022/12/17 22:08:37;;;;;;;18.77;8.20;;;;;;;8.67;nan;-24059.13;5032160;28;20229;-85
2022/12/17 22:11:14;;;;;;;16.67;9.50;;;;;;;8.86;nan;-24064.50;5032129;28;20182;-85
2022/12/17 22:16:25;;;;;;;19.67;8.65;;;;;;;8.66;nan;-24058.84;5035411;28;20174;-81
2022/12/17 22:18:51;;;;;;;18.92;9.23;;;;;;;8.71;nan;-24060.25;5035112;28;20254;-83
2022/12/17 22:21:17;;;;;;;18.27;8.98;;;;;;;9.12;nan;-24071.72;5033779;28;20556;-83
2022/12/17 22:23:47;;;;;;;19.50;9.35;;;;;;;9.10;nan;-24071.16;5034232;28;20183;-83
2022/12/17 22:26:14;;;;;;;19.20;9.30;;;;;;;8.95;nan;-24066.91;5034880;28;20168;-78
2022/12/17 22:28:41;;;;;;;19.92;8.73;;;;;;;8.62;nan;-24057.88;5033947;28;20187;-86
2022/12/17 22:33:50;;;;;;;15.43;7.75;;;;;;;8.52;nan;-24054.88;5035405;28;20215;-86
2022/12/17 22:36:16;;;;;;;16.02;8.25;;;;;;;8.70;nan;-24060.13;5033412;28;20231;-85
2022/12/17 22:38:42;;;;;;;21.67;9.63;;;;;;;8.73;nan;-24060.97;5033753;28;20176;-86
2022/12/17 22:43:28;;;;;;;15.63;8.05;;;;;;;8.70;nan;-24060.13;5034725;28;20257;-88
2022/12/17 22:43:53;;;;;;;16.05;8.98;;;;;;;8.38;nan;-24051.22;5035542;28;20175;-85
2022/12/17 22:46:19;;;;;;;16.67;8.95;;;;;;;7.18;nan;-24017.47;5034139;28;20183;-85
2022/12/17 22:48:44;;;;;;;12.93;8.00;;;;;;;8.57;nan;-24056.44;5034163;28;20183;-86
2022/12/17 22:51:10;;;;;;;13.05;8.18;;;;;;;8.63;nan;-24058.16;5034059;28;20195;-84
2022/12/17 22:53:36;;;;;;;11.25;6.20;;;;;;;8.59;nan;-24057.00;5035138;28;20160;-85
2022/12/17 22:56:05;;;;;;;18.67;9.30;;;;;;;8.17;nan;-24045.13;5033878;28;20201;-84
2022/12/17 22:58:30;;;;;;;16.98;8.32;;;;;;;8.63;nan;-24058.16;5034203;28;20555;-87
2022/12/17 23:00:58;;;;;;;15.30;7.97;;;;;;;8.47;nan;-24053.47;5035705;28;20178;-87
2022/12/17 23:03:23;;;;;;;14.57;7.70;;;;;;;8.40;nan;-24051.78;5033827;28;20309;-86
2022/12/17 23:05:49;;;;;;;17.50;7.43;;;;;;;8.10;nan;-24043.13;5035222;28;20203;-86
2022/12/17 23:08:14;;;;;;;18.88;9.18;;;;;;;8.15;nan;-24044.69;5034172;28;20266;-87
2022/12/17 23:10:40;;;;;;;16.58;8.90;;;;;;;7.84;nan;-24036.06;5033916;28;20251;-86
2022/12/17 23:13:05;;;;;;;17.40;8.60;;;;;;;8.06;nan;-24042.00;5034225;28;20211;-85
2022/12/17 23:15:35;;;;;;;16.60;8.77;;;;;;;7.49;nan;-24026.28;5033929;28;20745;-87
2022/12/17 23:18:03;;;;;;;17.63;9.43;;;;;;;7.36;nan;-24022.44;5033961;28;20183;-86
2022/12/17 23:20:31;;;;;;;25.83;11.17;;;;;;;7.63;nan;-24029.97;5034591;28;20623;-89
2022/12/17 23:22:56;;;;;;;23.17;10.07;;;;;;;7.91;nan;-24038.03;5033824;28;20270;-84
2022/12/17 23:25:22;;;;;;;18.90;8.23;;;;;;;8.03;nan;-24041.28;5033947;28;20271;-87
2022/12/17 23:27:49;;;;;;;26.98;11.02;;;;;;;8.13;nan;-24044.00;5034083;28;20175;-84
2022/12/17 23:30:15;;;;;;;20.23;10.20;;;;;;;8.01;nan;-24040.72;5035506;28;20199;-85
2022/12/17 23:32:41;;;;;;;17.17;8.57;;;;;;;7.15;nan;-24016.50;5035205;28;20199;-85
2022/12/17 23:35:08;;;;;;;19.07;9.40;;;;;;;7.88;nan;-24037.19;5034931;28;20195;-85
2022/12/17 23:37:33;;;;;;;16.47;8.97;;;;;;;7.87;nan;-24036.91;5033334;28;20183;-87
2022/12/17 23:40:00;;;;;;;20.97;10.33;;;;;;;7.89;nan;-24037.47;5034563;28;20236;-87
2022/12/17 23:42:25;;;;;;;15.90;9.87;;;;;;;8.14;nan;-24044.28;5033953;28;20183;-88
2022/12/17 23:44:51;;;;;;;21.50;9.97;;;;;;;8.12;nan;-24043.84;5035780;28;20607;-85
2022/12/17 23:47:17;;;;;;;17.92;8.77;;;;;;;8.34;nan;-24050.06;5034409;28;20186;-85
2022/12/17 23:49:43;;;;;;;15.05;8.25;;;;;;;8.48;nan;-24053.75;5033105;28;20190;-85
2022/12/17 23:52:08;;;;;;;17.58;8.52;;;;;;;8.35;nan;-24050.22;5033439;28;20175;-86
2022/12/17 23:54:35;;;;;;;14.77;9.07;;;;;;;8.49;nan;-24054.19;5033146;28;20675;-85
2022/12/17 23:57:01;;;;;;;14.98;8.35;;;;;;;8.43;nan;-24052.63;5035504;28;20191;-86
2022/12/17 23:59:26;;;;;;;20.95;9.38;;;;;;;8.34;nan;-24049.94;5033288;28;20187;-85
